Time;durP1;ratioP1;P1;durP2;ratioP2;P2;SDS_P1;SDS_P2;PMS_P1;PMS_P2;Temp;Humidity;BMP_temperature;BMP_pressure;BME280_temperature;BME280_humidity;BME280_pressure;Samples;Min_cycle;Max_cycle;Signal;HPM_P1;HPM_P2
2024/02/29 00:00:30;;;;;;;29.70;14.90;;;;;;;4.39;100.00;100844.23;134904;1300;22145;-80
2024/02/29 00:03:31;;;;;;;28.70;14.20;;;;;;;4.42;100.00;100840.34;134639;1300;22256;-79
2024/02/29 00:06:31;;;;;;;29.10;14.20;;;;;;;4.41;100.00;100844.09;134893;1300;22276;-80
2024/02/29 00:09:32;;;;;;;25.30;14.30;;;;;;;4.45;100.00;100848.86;134916;1300;22217;-79
2024/02/29 00:12:33;;;;;;;28.00;15.40;;;;;;;4.51;100.00;100854.27;134897;1293;22456;-79
2024/02/29 00:15:34;;;;;;;28.30;14.80;;;;;;;4.50;100.00;100850.28;134846;1300;22284;-79
2024/02/29 00:18:35;;;;;;;25.10;14.40;;;;;;;4.55;100.00;100844.33;134874;1295;23151;-80
2024/02/29 00:21:35;;;;;;;27.20;15.00;;;;;;;4.57;100.00;100840.84;134867;1300;22410;-80
2024/02/29 00:24:36;;;;;;;29.60;15.40;;;;;;;4.57;100.00;100837.86;134873;1298;22384;-79
2024/02/29 00:27:36;;;;;;;32.10;16.30;;;;;;;4.57;100.00;100839.10;134926;1300;23207;-79
2024/02/29 00:30:40;;;;;;;29.20;15.00;;;;;;;4.59;100.00;100841.91;134890;1300;22446;-79
2024/02/29 00:33:41;;;;;;;33.10;16.20;;;;;;;4.59;100.00;100842.77;134916;1300;22240;-79
2024/02/29 00:36:41;;;;;;;36.50;18.10;;;;;;;4.62;100.00;100841.20;134926;1300;23499;-79
2024/02/29 00:39:42;;;;;;;31.90;17.60;;;;;;;4.61;100.00;100841.41;134927;1297;22396;-79
2024/02/29 00:42:42;;;;;;;34.50;18.10;;;;;;;4.57;100.00;100833.61;134901;1300;22399;-80
2024/02/29 00:45:43;;;;;;;36.20;18.70;;;;;;;4.51;100.00;100836.52;134886;1300;22283;-79
2024/02/29 00:48:43;;;;;;;;;;;;;;;4.45;100.00;100835.36;134901;1300;23201;-80
2024/02/29 00:51:44;;;;;;;33.20;18.20;;;;;;;4.42;100.00;100831.93;134900;1297;22895;-80
2024/02/29 00:54:44;;;;;;;37.70;18.40;;;;;;;4.38;100.00;100832.73;134896;1293;22392;-80
2024/02/29 00:57:49;;;;;;;36.40;18.80;;;;;;;4.38;100.00;100830.27;134891;1300;22275;-80
2024/02/29 01:00:49;;;;;;;34.60;18.10;;;;;;;4.38;100.00;100825.34;134833;1293;22370;-79
2024/02/29 01:03:50;;;;;;;38.50;18.40;;;;;;;4.39;100.00;100823.02;134875;1300;22379;-80
2024/02/29 01:06:51;;;;;;;;;;;;;;;4.43;100.00;100823.77;134882;1292;22424;-80
2024/02/29 01:09:52;;;;;;;32.90;18.70;;;;;;;4.48;100.00;100819.71;134888;1300;22364;-79
2024/02/29 01:12:56;;;;;;;40.10;20.50;;;;;;;4.54;100.00;100821.25;134897;1296;22457;-80
2024/02/29 01:15:57;;;;;;;43.90;20.70;;;;;;;4.53;100.00;100817.98;134872;1295;22457;-80
2024/02/29 01:18:58;;;;;;;36.90;20.30;;;;;;;4.52;100.00;100822.09;134896;1297;22402;-80
2024/02/29 01:21:59;;;;;;;38.90;20.60;;;;;;;4.51;100.00;100819.35;134829;1286;23190;-79
2024/02/29 01:24:59;;;;;;;41.80;22.10;;;;;;;4.53;100.00;100816.09;134663;1295;22390;-79
2024/02/29 01:28:00;;;;;;;;;;;;;;;4.55;100.00;100813.32;134628;1294;22482;-79
2024/02/29 01:31:00;;;;;;;41.00;19.60;;;;;;;4.58;100.00;100810.98;134662;1291;22484;-80
2024/02/29 01:34:01;;;;;;;36.30;21.30;;;;;;;4.59;100.00;100806.50;134655;1301;22513;-79
2024/02/29 01:37:02;;;;;;;48.30;21.70;;;;;;;4.60;100.00;100806.58;134637;1301;22615;-79
2024/02/29 01:40:04;;;;;;;47.40;23.00;;;;;;;4.67;100.00;100803.50;134662;1301;23050;-80
2024/02/29 01:43:05;;;;;;;46.10;23.40;;;;;;;4.70;100.00;100805.88;134665;1297;22271;-79
2024/02/29 01:46:14;;;;;;;48.30;23.00;;;;;;;4.74;100.00;100803.28;134669;1295;22514;-80
2024/02/29 01:49:18;;;;;;;51.20;23.90;;;;;;;4.79;100.00;100804.38;134653;1301;22406;-79
2024/02/29 01:52:21;;;;;;;49.10;24.10;;;;;;;4.79;100.00;100802.09;134636;1301;22478;-79
2024/02/29 01:55:24;;;;;;;46.80;24.00;;;;;;;4.71;100.00;100804.92;134632;1297;23144;-79
2024/02/29 01:58:25;;;;;;;43.30;23.80;;;;;;;4.69;100.00;100805.95;134637;1301;22889;-79
2024/02/29 02:01:29;;;;;;;49.20;23.90;;;;;;;4.71;100.00;100806.66;134585;1294;22433;-80
2024/02/29 02:04:29;;;;;;;42.50;23.40;;;;;;;4.74;100.00;100805.63;134653;1301;23680;-79
2024/02/29 02:07:30;;;;;;;45.80;23.60;;;;;;;4.76;100.00;100799.35;134639;1297;22550;-79
2024/02/29 02:10:31;;;;;;;49.30;23.00;;;;;;;4.75;100.00;100796.22;134645;1301;22456;-80
2024/02/29 02:13:31;;;;;;;50.30;24.80;;;;;;;4.77;100.00;100791.71;134648;1301;22466;-79
2024/02/29 02:16:32;;;;;;;46.20;23.10;;;;;;;4.82;100.00;100785.73;134647;1291;22441;-79
2024/02/29 02:19:32;;;;;;;49.00;26.40;;;;;;;4.86;100.00;100785.27;134659;1298;22300;-79
2024/02/29 02:22:33;;;;;;;51.20;25.40;;;;;;;4.90;100.00;100780.20;134754;1295;22966;-78
2024/02/29 02:25:33;;;;;;;48.40;25.40;;;;;;;4.91;100.00;100781.17;134871;1295;23202;-78
2024/02/29 02:28:34;;;;;;;53.20;25.90;;;;;;;4.93;100.00;100776.49;134887;1292;23280;-78
2024/02/29 02:31:35;;;;;;;54.40;26.90;;;;;;;4.97;100.00;100775.89;134856;1300;22314;-79
2024/02/29 02:34:35;;;;;;;;;;;;;;;5.00;100.00;100772.86;134615;1300;22520;-79
2024/02/29 02:37:36;;;;;;;57.00;26.40;;;;;;;4.93;100.00;100769.84;134885;1300;22372;-79
2024/02/29 02:40:37;;;;;;;51.50;26.10;;;;;;;4.85;100.00;100770.96;134867;1298;22532;-79
2024/02/29 02:43:37;;;;;;;49.40;24.80;;;;;;;4.85;100.00;100772.91;134895;1298;23127;-78
2024/02/29 02:46:38;;;;;;;41.90;22.50;;;;;;;4.83;100.00;100763.01;134846;1300;22461;-79
2024/02/29 02:49:39;;;;;;;43.10;21.90;;;;;;;4.71;100.00;100761.14;134889;1300;22129;-79
2024/02/29 02:52:40;;;;;;;38.10;18.90;;;;;;;4.53;100.00;100764.69;134863;1300;22483;-79
2024/02/29 02:55:43;;;;;;;36.70;20.10;;;;;;;4.45;100.00;100765.86;134869;1296;22415;-79
2024/02/29 02:58:44;;;;;;;32.90;19.00;;;;;;;4.43;100.00;100758.59;134882;1296;22451;-80
2024/02/29 03:01:44;;;;;;;36.50;18.40;;;;;;;4.43;100.00;100758.06;134895;1295;22373;-79
2024/02/29 03:04:45;;;;;;;32.10;18.50;;;;;;;4.43;100.00;100758.64;134876;1295;22559;-79
2024/02/29 03:07:45;;;;;;;29.90;18.00;;;;;;;4.43;100.00;100757.92;134856;1298;22335;-79
2024/02/29 03:10:47;;;;;;;30.00;17.80;;;;;;;4.45;100.00;100760.76;134850;1295;22336;-79
2024/02/29 03:13:47;;;;;;;31.40;17.80;;;;;;;4.43;100.00;100758.73;134881;1299;22452;-79
2024/02/29 03:16:48;;;;;;;29.40;17.60;;;;;;;4.43;100.00;100755.98;134873;1297;22282;-79
2024/02/29 03:19:48;;;;;;;34.60;19.30;;;;;;;4.44;100.00;100756.64;134847;1295;22329;-79
2024/02/29 03:22:49;;;;;;;32.20;16.80;;;;;;;4.41;100.00;100753.02;134895;1300;22555;-79
2024/02/29 03:25:49;;;;;;;;;;;;;;;4.36;100.00;100752.48;134928;1297;23164;-79
2024/02/29 03:28:50;;;;;;;35.00;19.40;;;;;;;4.30;100.00;100747.84;134877;1295;22366;-79
2024/02/29 03:31:50;;;;;;;37.60;20.60;;;;;;;4.22;100.00;100745.98;134885;1300;22480;-79
2024/02/29 03:34:51;;;;;;;38.10;21.30;;;;;;;4.18;100.00;100745.20;134892;1300;22423;-79
2024/02/29 03:37:59;;;;;;;41.40;21.60;;;;;;;4.14;100.00;100748.48;134911;1297;23202;-79
2024/02/29 03:41:05;;;;;;;41.80;21.00;;;;;;;4.11;100.00;100746.90;134685;1300;22443;-79
2024/02/29 03:44:05;;;;;;;40.30;20.40;;;;;;;4.10;100.00;100741.98;134871;1300;22385;-79
2024/02/29 03:47:06;;;;;;;37.90;20.90;;;;;;;4.09;100.00;100742.37;134901;1300;22384;-79
2024/02/29 03:50:10;;;;;;;;;;;;;;;4.06;100.00;100741.52;134911;1300;23386;-79
2024/02/29 03:53:12;;;;;;;46.10;21.90;;;;;;;4.02;100.00;100737.21;134861;1301;22304;-79
2024/02/29 03:56:13;;;;;;;41.50;22.40;;;;;;;4.02;100.00;100733.91;134855;1297;22282;-79
2024/02/29 03:59:13;;;;;;;44.30;23.70;;;;;;;4.07;100.00;100728.15;134871;1300;22383;-80
2024/02/29 04:02:14;;;;;;;46.40;22.90;;;;;;;4.08;100.00;100731.89;134915;1300;22451;-79
2024/02/29 04:05:14;;;;;;;50.40;24.80;;;;;;;4.11;100.00;100728.52;134896;1300;22385;-79
2024/02/29 04:08:15;;;;;;;48.80;22.70;;;;;;;4.16;100.00;100729.59;134926;1297;22397;-79
2024/02/29 04:11:16;;;;;;;51.10;24.80;;;;;;;4.18;100.00;100727.84;134857;1292;23011;-79
2024/02/29 04:14:16;;;;;;;45.30;23.10;;;;;;;4.21;100.00;100724.34;134887;1301;23333;-79
2024/02/29 04:17:17;;;;;;;47.50;22.30;;;;;;;4.23;100.00;100722.20;134860;1292;22375;-79
2024/02/29 04:20:18;;;;;;;47.00;24.00;;;;;;;4.26;100.00;100722.05;134881;1295;23558;-79
2024/02/29 04:23:19;;;;;;;43.50;19.70;;;;;;;4.23;100.00;100715.92;134827;1299;22444;-79
2024/02/29 04:26:19;;;;;;;46.40;22.60;;;;;;;4.17;100.00;100712.48;134895;1292;23105;-79
2024/02/29 04:29:20;;;;;;;42.70;22.60;;;;;;;4.12;100.00;100706.79;134878;1292;22453;-78
2024/02/29 04:32:20;;;;;;;45.10;22.30;;;;;;;4.11;100.00;100712.78;134915;1285;22353;-79
2024/02/29 04:35:21;;;;;;;49.60;23.30;;;;;;;4.11;100.00;100713.67;134893;1300;22449;-79
2024/02/29 04:38:22;;;;;;;45.50;24.00;;;;;;;4.14;100.00;100717.66;134847;1299;22554;-79
2024/02/29 04:41:22;;;;;;;;;;;;;;;4.20;100.00;100717.23;134842;1300;22466;-79
2024/02/29 04:44:23;;;;;;;42.40;21.20;;;;;;;4.23;100.00;100717.30;134861;1300;22465;-79
2024/02/29 04:47:24;;;;;;;42.80;22.10;;;;;;;4.22;100.00;100713.37;134878;1293;23048;-79
2024/02/29 04:50:25;;;;;;;43.20;20.70;;;;;;;4.19;100.00;100712.39;134671;1300;23419;-79
2024/02/29 04:53:26;;;;;;;43.50;20.60;;;;;;;4.16;100.00;100710.32;134871;1292;22282;-79
2024/02/29 04:56:26;;;;;;;40.40;20.60;;;;;;;4.12;100.00;100706.04;134715;1296;22368;-79
2024/02/29 04:59:27;;;;;;;45.10;21.10;;;;;;;4.10;100.00;100706.19;134887;1292;22491;-79
2024/02/29 05:02:27;;;;;;;45.50;21.80;;;;;;;4.09;100.00;100704.73;134849;1293;22338;-79
2024/02/29 05:05:28;;;;;;;40.20;21.00;;;;;;;4.06;100.00;100700.87;134881;1295;22666;-79
2024/02/29 05:08:28;;;;;;;41.00;21.60;;;;;;;4.07;100.00;100701.52;134890;1300;23759;-79
2024/02/29 05:11:29;;;;;;;42.50;20.40;;;;;;;4.06;100.00;100697.77;134877;1292;22892;-80
2024/02/29 05:14:30;;;;;;;48.20;22.00;;;;;;;4.07;100.00;100699.45;134867;1292;23118;-80
2024/02/29 05:17:31;;;;;;;52.00;22.90;;;;;;;4.06;100.00;100696.30;134861;1298;22295;-81
2024/02/29 05:20:31;;;;;;;51.20;22.40;;;;;;;4.08;100.00;100699.52;134893;1300;22471;-79
2024/02/29 05:23:33;;;;;;;49.20;23.10;;;;;;;4.07;100.00;100698.90;134690;1295;23064;-83
2024/02/29 05:26:34;;;;;;;42.70;21.40;;;;;;;4.08;100.00;100698.33;134682;1294;22265;-83
2024/02/29 05:29:34;;;;;;;42.90;23.00;;;;;;;4.11;100.00;100698.05;134644;1301;23085;-80
2024/02/29 05:32:36;;;;;;;42.90;22.80;;;;;;;4.14;100.00;100697.81;134611;1295;22448;-80
2024/02/29 05:35:36;;;;;;;43.70;20.80;;;;;;;4.18;100.00;100698.97;134658;1301;22480;-79
2024/02/29 05:38:37;;;;;;;51.10;23.00;;;;;;;4.20;100.00;100695.96;134643;1297;22403;-79
2024/02/29 05:41:37;;;;;;;48.70;23.20;;;;;;;4.24;100.00;100695.02;134648;1295;22554;-78
2024/02/29 05:44:39;;;;;;;49.00;23.10;;;;;;;4.29;100.00;100691.85;134656;1301;23404;-78
2024/02/29 05:47:40;;;;;;;46.20;21.80;;;;;;;4.33;100.00;100697.33;134685;1294;22452;-78
2024/02/29 05:50:40;;;;;;;47.80;22.50;;;;;;;4.33;100.00;100695.92;134652;1294;22481;-78
2024/02/29 05:53:41;;;;;;;55.70;24.10;;;;;;;4.30;100.00;100704.88;134671;1294;22517;-79
2024/02/29 05:56:47;;;;;;;47.90;23.40;;;;;;;4.30;100.00;100702.80;134661;1294;22480;-79
2024/02/29 05:59:47;;;;;;;49.30;24.10;;;;;;;4.33;100.00;100702.96;134681;1298;22394;-78
2024/02/29 06:02:48;;;;;;;49.60;25.50;;;;;;;4.39;100.00;100703.75;134651;1295;22344;-78
2024/02/29 06:05:48;;;;;;;38.30;21.40;;;;;;;4.49;100.00;100704.23;134648;1298;22581;-78
2024/02/29 06:08:49;;;;;;;;;;;;;;;4.49;100.00;100705.25;134652;1294;22466;-77
2024/02/29 06:11:50;;;;;;;51.40;25.50;;;;;;;4.46;100.00;100702.70;134653;1294;22271;-78
2024/02/29 06:14:50;;;;;;;47.30;25.10;;;;;;;4.45;100.00;100702.95;134635;1294;22408;-78
2024/02/29 06:17:51;;;;;;;50.50;24.70;;;;;;;4.46;100.00;100701.27;134670;1294;22359;-77
2024/02/29 06:20:51;;;;;;;53.10;27.40;;;;;;;4.47;100.00;100706.94;134677;1294;22493;-78
2024/02/29 06:23:54;;;;;;;50.50;25.40;;;;;;;4.50;100.00;100706.08;134806;1300;23381;-78
2024/02/29 06:26:54;;;;;;;56.70;26.80;;;;;;;4.53;100.00;100703.42;134895;1296;22370;-78
2024/02/29 06:29:55;;;;;;;46.10;24.20;;;;;;;4.56;100.00;100704.94;134916;1300;22403;-78
2024/02/29 06:32:58;;;;;;;51.20;27.30;;;;;;;4.57;100.00;100702.80;134877;1293;22534;-78
2024/02/29 06:35:59;;;;;;;54.70;23.90;;;;;;;4.57;100.00;100704.85;134882;1300;22433;-78
2024/02/29 06:39:00;;;;;;;55.50;26.90;;;;;;;4.61;100.00;100707.71;134890;1300;22405;-77
2024/02/29 06:42:00;;;;;;;54.30;26.20;;;;;;;4.64;100.00;100706.08;134669;1296;22431;-80
2024/02/29 06:45:03;;;;;;;47.90;23.90;;;;;;;4.66;100.00;100706.25;134877;1293;22508;-79
2024/02/29 06:48:04;;;;;;;52.90;26.20;;;;;;;4.68;100.00;100703.67;134868;1292;22378;-82
2024/02/29 06:51:04;;;;;;;;;;;;;;;4.68;100.00;100700.90;134906;1295;22464;-80
2024/02/29 06:54:05;;;;;;;65.90;30.10;;;;;;;4.69;100.00;100697.96;134904;1300;22404;-80
2024/02/29 06:57:06;;;;;;;;;;;;;;;4.70;100.00;100692.64;134868;1293;22504;-80
2024/02/29 07:00:10;;;;;;;62.80;29.50;;;;;;;4.70;100.00;100688.81;134890;1286;22189;-79
2024/02/29 07:03:11;;;;;;;61.20;29.90;;;;;;;4.74;100.00;100690.67;134882;1300;22232;-78
2024/02/29 07:06:11;;;;;;;60.20;29.70;;;;;;;4.77;100.00;100691.30;134891;1300;22828;-79
2024/02/29 07:09:12;;;;;;;57.80;29.20;;;;;;;4.83;100.00;100688.58;134714;1295;23197;-80
2024/02/29 07:12:12;;;;;;;61.30;30.00;;;;;;;4.88;100.00;100683.40;134862;1289;22502;-80
2024/02/29 07:15:13;;;;;;;62.30;29.90;;;;;;;4.93;100.00;100683.39;134841;1292;22426;-80
2024/02/29 07:18:13;;;;;;;61.20;30.20;;;;;;;4.94;100.00;100683.12;134881;1292;23260;-80
2024/02/29 07:21:17;;;;;;;65.80;30.50;;;;;;;4.94;100.00;100685.08;134885;1300;22508;-79
2024/02/29 07:24:18;;;;;;;60.80;29.30;;;;;;;5.00;100.00;100685.87;134864;1292;22413;-80
2024/02/29 07:27:18;;;;;;;59.20;28.00;;;;;;;5.05;100.00;100687.78;134873;1292;22535;-80
2024/02/29 07:30:21;;;;;;;55.40;26.60;;;;;;;5.08;100.00;100688.40;134757;1292;22555;-80
2024/02/29 07:33:24;;;;;;;50.50;26.80;;;;;;;5.09;100.00;100689.21;134843;1300;22403;-80
2024/02/29 07:36:27;;;;;;;48.70;27.00;;;;;;;5.11;100.00;100686.20;134915;1300;22354;-81
2024/02/29 07:39:28;;;;;;;47.90;26.40;;;;;;;5.17;100.00;100684.56;134897;1292;22434;-80
2024/02/29 07:42:29;;;;;;;;;;;;;;;5.21;100.00;100683.91;134919;1292;22488;-80
2024/02/29 07:45:29;;;;;;;54.70;27.10;;;;;;;5.19;100.00;100676.36;134908;1292;22384;-81
2024/02/29 07:48:30;;;;;;;51.10;26.10;;;;;;;5.17;100.00;100678.94;134922;1300;22505;-81
2024/02/29 07:51:31;;;;;;;54.60;27.90;;;;;;;5.16;100.00;100678.61;134889;1298;23091;-81
2024/02/29 07:54:31;;;;;;;46.70;23.90;;;;;;;5.18;100.00;100678.54;134651;1292;22252;-80
2024/02/29 07:57:32;;;;;;;58.70;27.00;;;;;;;5.19;100.00;100678.50;134863;1300;22450;-80
2024/02/29 08:00:34;;;;;;;58.30;26.70;;;;;;;5.22;100.00;100675.61;134909;1295;22433;-80
2024/02/29 08:03:34;;;;;;;54.10;26.90;;;;;;;5.21;100.00;100680.02;134912;1300;22372;-80
2024/02/29 08:06:37;;;;;;;51.70;26.20;;;;;;;5.23;100.00;100681.14;134917;1300;23031;-80
2024/02/29 08:09:38;;;;;;;59.60;27.20;;;;;;;5.25;100.00;100673.61;134906;1292;22508;-80
2024/02/29 08:12:38;;;;;;;52.10;25.30;;;;;;;5.24;100.00;100675.77;134904;1300;23197;-80
2024/02/29 08:15:39;;;;;;;52.50;24.90;;;;;;;5.25;100.00;100674.28;134912;1298;22280;-80
2024/02/29 08:18:39;;;;;;;49.70;24.40;;;;;;;5.27;100.00;100674.32;134869;1300;22249;-81
2024/02/29 08:21:40;;;;;;;58.30;28.20;;;;;;;5.26;100.00;100675.73;134862;1295;22507;-80
2024/02/29 08:24:41;;;;;;;52.10;26.10;;;;;;;5.28;100.00;100673.68;134901;1295;22393;-81
2024/02/29 08:27:41;;;;;;;57.20;26.80;;;;;;;5.31;100.00;100668.16;134895;1292;22406;-80
2024/02/29 08:30:45;;;;;;;50.60;24.50;;;;;;;5.36;100.00;100668.52;134903;1299;22524;-80
2024/02/29 08:33:45;;;;;;;53.70;25.40;;;;;;;5.38;100.00;100664.30;134867;1292;23308;-80
2024/02/29 08:36:46;;;;;;;54.10;24.30;;;;;;;5.37;100.00;100657.02;134834;1300;22408;-80
2024/02/29 08:39:47;;;;;;;;;;;;;;;5.38;100.00;100656.41;134924;1299;22467;-80
2024/02/29 08:42:47;;;;;;;56.20;25.90;;;;;;;5.39;100.00;100650.89;134917;1292;22284;-80
2024/02/29 08:45:48;;;;;;;48.20;23.50;;;;;;;5.40;100.00;100653.44;134898;1300;23300;-80
2024/02/29 08:48:48;;;;;;;;;;;;;;;5.47;100.00;100653.13;134906;1295;22510;-80
2024/02/29 08:51:49;;;;;;;60.10;27.20;;;;;;;5.50;100.00;100650.95;134831;1300;22278;-78
2024/02/29 08:54:49;;;;;;;57.20;26.20;;;;;;;5.55;100.00;100645.25;134904;1300;22264;-81
2024/02/29 08:57:50;;;;;;;51.20;24.80;;;;;;;5.58;100.00;100642.35;134904;1298;23298;-81
2024/02/29 09:00:51;;;;;;;52.50;24.80;;;;;;;5.62;100.00;100637.33;134870;1292;22153;-81
2024/02/29 09:03:53;;;;;;;47.70;23.20;;;;;;;5.69;100.00;100635.70;134861;1300;22461;-80
2024/02/29 09:06:53;;;;;;;53.90;24.40;;;;;;;5.75;100.00;100632.22;134863;1300;23162;-80
2024/02/29 09:09:54;;;;;;;52.40;26.80;;;;;;;5.78;100.00;100633.77;134931;1300;23219;-80
2024/02/29 09:12:57;;;;;;;58.40;27.00;;;;;;;5.80;100.00;100634.11;134850;1293;23678;-81
2024/02/29 09:16:03;;;;;;;58.60;26.90;;;;;;;5.83;100.00;100626.67;134850;1297;22222;-80
2024/02/29 09:19:04;;;;;;;62.30;29.20;;;;;;;5.86;100.00;100627.70;134853;1300;22401;-80
2024/02/29 09:22:04;;;;;;;64.00;28.90;;;;;;;5.84;100.00;100624.34;134839;1300;22461;-80
2024/02/29 09:25:06;;;;;;;57.70;27.50;;;;;;;5.84;100.00;100617.33;134850;1292;23134;-81
2024/02/29 09:28:07;;;;;;;63.60;28.30;;;;;;;5.85;100.00;100616.68;134866;1292;22393;-81
2024/02/29 09:31:07;;;;;;;67.90;27.20;;;;;;;5.89;100.00;100615.50;134868;1300;22236;-81
2024/02/29 09:34:11;;;;;;;65.90;29.70;;;;;;;5.89;100.00;100610.66;134852;1300;22375;-81
2024/02/29 09:37:12;;;;;;;73.40;29.70;;;;;;;5.91;100.00;100605.36;134870;1292;23337;-81
2024/02/29 09:40:15;;;;;;;74.10;32.00;;;;;;;5.94;100.00;100600.94;134903;1292;23121;-81
2024/02/29 09:43:16;;;;;;;65.30;28.00;;;;;;;5.95;100.00;100598.01;134692;1295;22475;-81
2024/02/29 09:46:17;;;;;;;77.50;30.30;;;;;;;5.99;100.00;100596.66;134844;1292;23207;-81
2024/02/29 09:49:18;;;;;;;68.90;29.20;;;;;;;6.05;100.00;100598.91;134852;1292;23162;-81
2024/02/29 09:52:19;;;;;;;;;;;;;;;6.10;100.00;100595.03;134901;1292;22471;-82
2024/02/29 09:55:23;;;;;;;65.30;27.40;;;;;;;6.14;100.00;100598.25;134849;1292;23308;-81
2024/02/29 09:58:29;;;;;;;64.90;28.60;;;;;;;6.16;100.00;100595.24;134899;1295;22423;-81
2024/02/29 10:01:32;;;;;;;71.80;29.00;;;;;;;6.18;100.00;100595.25;134728;1300;189116;-81
2024/02/29 10:04:33;;;;;;;63.10;28.60;;;;;;;6.20;100.00;100588.42;134896;1292;22466;-81
2024/02/29 10:07:41;;;;;;;69.10;29.20;;;;;;;6.24;100.00;100586.17;134872;1292;22469;-81
2024/02/29 10:10:45;;;;;;;66.30;28.50;;;;;;;6.34;100.00;100582.02;134847;1300;22430;-81
2024/02/29 10:13:47;;;;;;;64.70;28.80;;;;;;;6.43;100.00;100578.05;134873;1300;22339;-81
2024/02/29 10:16:58;;;;;;;64.00;29.00;;;;;;;6.48;100.00;100577.79;134912;1293;23181;-81
2024/02/29 10:19:59;;;;;;;68.00;29.20;;;;;;;6.55;100.00;100577.42;134860;1297;22419;-81
2024/02/29 10:23:00;;;;;;;62.30;27.80;;;;;;;6.60;100.00;100574.37;134860;1294;22404;-81
2024/02/29 10:26:00;;;;;;;63.20;29.80;;;;;;;6.60;100.00;100566.61;134871;1299;23348;-81
2024/02/29 10:29:05;;;;;;;70.10;30.10;;;;;;;6.70;100.00;100565.24;134882;1292;22396;-81
2024/02/29 10:32:05;;;;;;;68.30;30.00;;;;;;;6.80;100.00;100563.56;134904;1292;22421;-81
2024/02/29 10:35:26;;;;;;;71.80;30.50;;;;;;;6.80;100.00;100561.04;134882;1300;22367;-81
2024/02/29 10:38:27;;;;;;;;;;;;;;;6.83;100.00;100551.27;134912;1300;22488;-81
2024/02/29 10:41:35;;;;;;;70.10;27.20;;;;;;;6.85;100.00;100547.65;134868;1300;22262;-81
2024/02/29 10:44:39;;;;;;;65.70;28.20;;;;;;;6.80;100.00;100540.30;134863;1295;22400;-81
2024/02/29 10:47:49;;;;;;;66.90;29.10;;;;;;;6.82;100.00;100535.23;134871;1297;22431;-82
2024/02/29 10:51:08;;;;;;;77.60;30.60;;;;;;;6.87;100.00;100530.91;134833;1292;23138;-81
2024/02/29 10:54:23;;;;;;;68.90;30.20;;;;;;;6.92;100.00;100528.21;134910;1292;22724;-80
2024/02/29 10:57:38;;;;;;;73.80;30.50;;;;;;;6.98;100.00;100520.99;134620;1300;23186;-80
2024/02/29 11:00:41;;;;;;;73.60;30.80;;;;;;;7.04;100.00;100514.63;134864;1294;22373;-81
2024/02/29 11:03:42;;;;;;;64.60;27.90;;;;;;;7.08;100.00;100504.58;134883;1295;23119;-81
2024/02/29 11:06:46;;;;;;;67.30;26.70;;;;;;;7.10;100.00;100502.17;134866;1286;22535;-80
2024/02/29 11:09:46;;;;;;;70.40;29.70;;;;;;;7.08;100.00;100503.41;134851;1292;22492;-81
2024/02/29 11:12:48;;;;;;;;;;;;;;;7.11;100.00;100502.41;134916;1292;22484;-80
2024/02/29 11:15:52;;;;;;;69.60;29.60;;;;;;;7.10;100.00;100493.87;134864;1293;22440;-81
2024/02/29 11:19:02;;;;;;;70.80;30.30;;;;;;;7.16;100.00;100494.77;134874;1292;23193;-80
2024/02/29 11:22:15;;;;;;;67.70;27.90;;;;;;;7.23;100.00;100488.02;134856;1294;23201;-80
2024/02/29 11:25:20;;;;;;;65.30;29.10;;;;;;;7.26;100.00;100480.30;134869;1292;22940;-80
2024/02/29 11:28:36;;;;;;;63.70;26.30;;;;;;;7.32;100.00;100478.05;134670;1300;23233;-80
2024/02/29 11:31:46;;;;;;;67.50;28.90;;;;;;;7.34;100.00;100473.23;134857;1299;22387;-80
2024/02/29 11:34:48;;;;;;;66.80;28.40;;;;;;;7.39;100.00;100470.58;134861;1293;22575;-80
2024/02/29 11:37:53;;;;;;;65.80;29.20;;;;;;;7.37;100.00;100467.88;134885;1295;22406;-80
2024/02/29 11:40:54;;;;;;;70.60;29.20;;;;;;;7.37;100.00;100463.88;134882;1292;22459;-81
2024/02/29 11:43:54;;;;;;;65.50;28.00;;;;;;;7.38;100.00;100458.13;134899;1292;22986;-80
2024/02/29 11:47:04;;;;;;;62.90;27.30;;;;;;;7.46;100.00;100450.25;134880;1300;22380;-80
2024/02/29 11:50:06;;;;;;;68.90;30.00;;;;;;;7.49;100.00;100444.69;134899;1296;22464;-80
2024/02/29 11:53:06;;;;;;;66.20;30.00;;;;;;;7.58;100.00;100433.81;134874;1292;22276;-81
2024/02/29 11:56:07;;;;;;;64.80;31.30;;;;;;;7.67;100.00;100428.94;134870;1297;22889;-80
2024/02/29 11:59:10;;;;;;;;;;;;;;;7.83;100.00;100427.98;134903;1292;22460;-80
2024/02/29 12:02:10;;;;;;;64.20;29.50;;;;;;;7.87;100.00;100423.36;134655;1295;22391;-81
2024/02/29 12:05:11;;;;;;;62.10;27.10;;;;;;;7.96;100.00;100421.52;134904;1293;22414;-80
2024/02/29 12:08:12;;;;;;;;;;;;;;;7.93;100.00;100419.89;134832;1300;22536;-81
2024/02/29 12:11:16;;;;;;;61.80;28.20;;;;;;;7.91;100.00;100415.45;134894;1293;22219;-81
2024/02/29 12:14:20;;;;;;;67.60;29.00;;;;;;;7.95;100.00;100412.99;134906;1300;23203;-80
2024/02/29 12:17:26;;;;;;;70.80;30.50;;;;;;;7.98;100.00;100409.34;134868;1300;23143;-80
2024/02/29 12:20:27;;;;;;;64.90;30.30;;;;;;;7.97;100.00;100412.09;134890;1298;22295;-81
2024/02/29 12:23:34;;;;;;;62.40;29.10;;;;;;;7.97;100.00;100406.29;134873;1300;23126;-80
2024/02/29 12:26:35;;;;;;;62.60;26.90;;;;;;;7.97;100.00;100408.88;134899;1295;22416;-80
2024/02/29 12:29:36;;;;;;;66.40;30.80;;;;;;;7.98;100.00;100404.08;134847;1292;22453;-80
2024/02/29 12:32:39;;;;;;;63.10;31.00;;;;;;;8.00;100.00;100403.36;134643;1295;22598;-80
2024/02/29 12:35:44;;;;;;;67.60;33.00;;;;;;;8.06;100.00;100399.61;134889;1298;22974;-81
2024/02/29 12:38:48;;;;;;;66.60;30.70;;;;;;;8.10;100.00;100398.17;134889;1293;23362;-80
2024/02/29 12:41:49;;;;;;;66.90;31.30;;;;;;;8.08;100.00;100387.97;134856;1292;23094;-80
2024/02/29 12:44:49;;;;;;;;;;;;;;;8.12;100.00;100379.35;134877;1296;22460;-80
2024/02/29 12:47:50;;;;;;;67.60;32.20;;;;;;;8.14;100.00;100375.95;134877;1300;23426;-81
2024/02/29 12:50:51;;;;;;;;;;;;;;;8.18;100.00;100369.46;134891;1300;23266;-81
2024/02/29 12:53:53;;;;;;;;;;;;;;;8.19;100.00;100360.34;134897;1300;22571;-80
2024/02/29 12:56:57;;;;;;;67.00;30.70;;;;;;;8.19;100.00;100362.63;134861;1295;22436;-80
2024/02/29 13:00:00;;;;;;;71.50;32.70;;;;;;;8.24;100.00;100362.38;134896;1294;22408;-81
2024/02/29 13:03:01;;;;;;;68.20;32.70;;;;;;;8.25;100.00;100360.96;134857;1298;23157;-80
2024/02/29 13:06:02;;;;;;;62.10;30.30;;;;;;;8.29;100.00;100356.38;134878;1299;22402;-80
2024/02/29 13:09:04;;;;;;;65.30;32.40;;;;;;;8.29;100.00;100353.38;134875;1298;22408;-80
2024/02/29 13:12:08;;;;;;;69.90;31.50;;;;;;;8.30;100.00;100351.89;134905;1300;22524;-81
2024/02/29 13:15:09;;;;;;;65.10;31.40;;;;;;;8.27;100.00;100344.02;134832;1292;22444;-81
2024/02/29 13:18:10;;;;;;;;;;;;;;;8.32;100.00;100342.89;134927;1300;22455;-81
2024/02/29 13:21:10;;;;;;;66.30;30.80;;;;;;;8.34;100.00;100335.45;134861;1292;22463;-80
2024/02/29 13:24:14;;;;;;;69.50;31.90;;;;;;;8.40;100.00;100332.99;134861;1297;22568;-80
2024/02/29 13:27:14;;;;;;;61.20;29.90;;;;;;;8.45;100.00;100332.20;134888;1297;22377;-80
2024/02/29 13:30:15;;;;;;;64.50;31.90;;;;;;;8.47;100.00;100324.42;134870;1292;23076;-81
2024/02/29 13:33:18;;;;;;;63.30;31.60;;;;;;;8.45;100.00;100321.90;134876;1295;22438;-80
2024/02/29 13:36:22;;;;;;;62.60;31.20;;;;;;;8.50;100.00;100316.63;134875;1292;22426;-81
2024/02/29 13:39:22;;;;;;;66.90;31.80;;;;;;;8.55;100.00;100316.02;134907;1295;22499;-81
2024/02/29 13:42:26;;;;;;;62.50;31.10;;;;;;;8.59;100.00;100317.58;134879;1294;22467;-80